Meteo Giornale » Osservazioni meteo Italia » Catania-Sigonella

ore: 23:55 - Osservazioni Meteo Catania-Sigonella
Lat. 37° 24' N Lon. 14° 55' E Alt. 22 metri s.l.m.

sereno Europe/Rome

17 °C

Sereno

Temp. 24 Ore

15 °C

26 °C

Nord

5.5 Km/h

Dew point 14 °C

Umidità 82 %

Visibilità  10 Km

Il sole sorge alle ore 06:46

Il sole tramonta alle ore 18:59

Data e Ora Cielo e Fenomeni T °C DP °C Um. % Pres. hPa Vis. km Vento km/h
Ieri h: 23:55 sereno Sereno 17 14 82 1020 10 N 5.5
Ieri h: 22:55 sereno Sereno 18 14 77 1020 10 N 5.5
Ieri h: 21:55 sereno Sereno 18 14 77 1020 10 O 9.3
Ieri h: 20:55 sereno Sereno 19 12 63 1019 10 N 5.5
Ieri h: 19:55 poco_nuvoloso Poco Nuvoloso 20 12 59 1019 10 E 13
Ieri h: 18:55 nuvoloso Nuvoloso 21 11 52 1018 10 E/NE 16.7
Ieri h: 17:55 molto_nuvoloso Molto Nuvoloso 22 10 46 1018 10 E 25.9
Ieri h: 16:55 nuvoloso Nuvoloso 24 10 41 1018 10 E 27.8
Ieri h: 15:55 nuvoloso Nuvoloso 25 10 38 1018 10 E 25.9
Ieri h: 14:55 nuvoloso Nuvoloso 26 10 36 1018 10 E 22.2
Ieri h: 13:55 molto_nuvoloso Molto Nuvoloso 26 9 34 1018 10 E 18.5
Ieri h: 12:55 molto_nuvoloso Molto Nuvoloso 26 10 36 1019 10 E 18.5
Ieri h: 11:55 molto_nuvoloso Molto Nuvoloso 26 10 36 1019 10 E/NE 18.5
Ieri h: 10:55 nuvoloso Nuvoloso 24 8 35 1019 10 O/NO 9.3
Ieri h: 09:55 sereno Sereno 23 10 43 1018 10 O/NO 18.5
Ieri h: 08:55 sereno Sereno 21 11 52 1018 10 O 22.2
Ieri h: 07:55 poco_nuvoloso Poco Nuvoloso 17 11 67 1017 10 O/SO 13
Ieri h: 06:55 poco_nuvoloso Poco Nuvoloso 15 10 72 1017 10 O 16.7
Ieri h: 05:55 poco_nuvoloso Poco Nuvoloso 15 10 72 1017 10 O 14.8
Ieri h: 04:55 poco_nuvoloso Poco Nuvoloso 15 10 72 1017 10 O 16.7
Ieri h: 03:55 poco_nuvoloso Poco Nuvoloso 15 9 67 1017 10 O/SO 18.5
Ieri h: 02:55 poco_nuvoloso Poco Nuvoloso 15 9 67 1018 10 O/SO 20.3
Ieri h: 01:55 poco_nuvoloso Poco Nuvoloso 15 10 72 1018 10 O/SO 16.7